createdAt,value
2018-11-25T00:01:21.466Z,101369.20
2018-11-25T00:03:49.107Z,101367.38
2018-11-25T00:06:16.833Z,101372.13
2018-11-25T00:08:44.475Z,101371.22
2018-11-25T00:11:12.164Z,101365.96
2018-11-25T00:13:39.813Z,101371.45
2018-11-25T00:16:07.515Z,101376.10
2018-11-25T00:18:35.207Z,101373.90
2018-11-25T00:21:03.002Z,101369.25
2018-11-25T00:23:30.668Z,101370.64
2018-11-25T00:25:58.360Z,101359.05
2018-11-25T00:28:26.025Z,101366.78
2018-11-25T00:30:53.675Z,101366.84
2018-11-25T00:33:21.334Z,101366.06
2018-11-25T00:35:48.978Z,101359.25
2018-11-25T00:38:16.694Z,101352.90
2018-11-25T00:40:44.448Z,101358.02
2018-11-25T00:43:12.110Z,101358.88
2018-11-25T00:45:39.777Z,101365.77
2018-11-25T00:48:07.437Z,101367.31
2018-11-25T00:50:35.142Z,101370.41
2018-11-25T00:53:02.882Z,101370.95
2018-11-25T00:55:30.525Z,101365.55
2018-11-25T00:57:58.198Z,101351.66
2018-11-25T01:00:25.867Z,101357.14
2018-11-25T01:02:53.565Z,101355.20
2018-11-25T01:05:21.338Z,101364.10
2018-11-25T01:07:49.016Z,101363.92
2018-11-25T01:10:17.021Z,101368.20
2018-11-25T01:12:45.094Z,101367.47
2018-11-25T01:15:13.712Z,101354.86
2018-11-25T01:17:41.471Z,101349.63
2018-11-25T01:20:11.526Z,101348.69
2018-11-25T01:22:39.199Z,101352.30
2018-11-25T01:25:08.343Z,101351.00
2018-11-25T01:27:36.084Z,101345.40
2018-11-25T01:30:05.123Z,101350.90
2018-11-25T01:32:32.794Z,101345.89
2018-11-25T01:35:01.120Z,101353.06
2018-11-25T01:37:28.229Z,101342.45
2018-11-25T01:39:55.898Z,101350.03
2018-11-25T01:42:23.550Z,101343.77
2018-11-25T01:44:51.180Z,101349.47
2018-11-25T01:47:18.884Z,101346.81
2018-11-25T01:49:46.543Z,101350.16
2018-11-25T01:52:14.188Z,101348.84
2018-11-25T01:54:41.826Z,101346.20
2018-11-25T01:57:09.471Z,101348.36
2018-11-25T01:59:37.204Z,101343.20
2018-11-25T02:02:05.061Z,101347.73
2018-11-25T02:04:32.710Z,101339.78
2018-11-25T02:07:00.377Z,101352.91
2018-11-25T02:09:28.061Z,101351.79
2018-11-25T02:11:55.785Z,101350.73
2018-11-25T02:14:23.458Z,101350.92
2018-11-25T02:16:51.113Z,101352.16
2018-11-25T02:19:18.792Z,101357.59
2018-11-25T02:21:46.474Z,101352.13
2018-11-25T02:24:14.134Z,101354.55
2018-11-25T02:26:41.809Z,101352.31
2018-11-25T02:29:09.482Z,101348.73
2018-11-25T02:31:37.145Z,101345.59
2018-11-25T02:34:04.975Z,101346.77
2018-11-25T02:36:32.633Z,101350.62
2018-11-25T02:39:00.289Z,101345.45
2018-11-25T02:41:27.937Z,101349.41
2018-11-25T02:43:55.622Z,101354.36
2018-11-25T02:46:23.274Z,101344.55
2018-11-25T02:48:51.697Z,101346.81
2018-11-25T02:51:18.625Z,101347.02
2018-11-25T02:53:46.300Z,101350.31
2018-11-25T02:56:13.958Z,101337.84
2018-11-25T02:58:41.633Z,101343.91
2018-11-25T03:01:09.321Z,101344.92
2018-11-25T03:03:37.213Z,101344.92
2018-11-25T03:06:04.930Z,101343.29
2018-11-25T03:08:32.591Z,101340.27
2018-11-25T03:11:00.245Z,101338.91
2018-11-25T03:13:27.897Z,101337.98
2018-11-25T03:15:55.638Z,101342.73
2018-11-25T03:18:23.309Z,101344.16
2018-11-25T03:20:50.994Z,101340.21
2018-11-25T03:23:18.643Z,101344.80
2018-11-25T03:25:47.127Z,101340.78
2018-11-25T03:28:14.802Z,101341.20
2018-11-25T03:30:42.485Z,101332.90
2018-11-25T03:33:10.147Z,101337.59
2018-11-25T03:35:37.848Z,101334.53
2018-11-25T03:38:05.556Z,101338.49
2018-11-25T03:40:33.276Z,101336.83
2018-11-25T03:43:00.922Z,101330.86
2018-11-25T03:45:28.597Z,101333.45
2018-11-25T03:47:56.265Z,101331.45
2018-11-25T03:50:23.949Z,101333.73
2018-11-25T03:52:51.615Z,101338.39
2018-11-25T03:55:19.274Z,101343.16
2018-11-25T03:57:46.948Z,101345.09
2018-11-25T04:00:17.601Z,101344.22
2018-11-25T04:02:45.285Z,101344.52
2018-11-25T04:05:14.066Z,101345.63
2018-11-25T04:07:41.730Z,101344.59
2018-11-25T04:10:11.565Z,101343.53
2018-11-25T04:12:39.263Z,101340.89
2018-11-25T04:15:10.699Z,101349.12
2018-11-25T04:17:38.488Z,101334.94
2018-11-25T04:20:09.096Z,101342.17
2018-11-25T04:22:37.150Z,101338.98
2018-11-25T04:25:06.341Z,101344.09
2018-11-25T04:27:33.986Z,101338.86
2018-11-25T04:30:01.685Z,101342.38
2018-11-25T04:32:29.361Z,101339.81
2018-11-25T04:34:57.002Z,101336.28
2018-11-25T04:37:24.750Z,101329.66
2018-11-25T04:39:52.394Z,101328.73
2018-11-25T04:42:20.091Z,101323.07
2018-11-25T04:44:47.747Z,101325.11
2018-11-25T04:47:15.404Z,101325.03
2018-11-25T04:49:43.051Z,101327.10
2018-11-25T04:52:10.749Z,101333.01
2018-11-25T04:54:38.452Z,101328.16
2018-11-25T04:57:06.218Z,101327.64
2018-11-25T04:59:34.034Z,101322.33
2018-11-25T05:02:01.671Z,101322.23
2018-11-25T05:04:29.325Z,101329.98
2018-11-25T05:06:57.001Z,101323.06
2018-11-25T05:09:24.666Z,101326.86
2018-11-25T05:11:52.330Z,101324.64
2018-11-25T05:14:19.999Z,101326.64
2018-11-25T05:16:47.654Z,101333.10
2018-11-25T05:19:15.307Z,101329.50
2018-11-25T05:21:42.960Z,101339.38
2018-11-25T05:24:10.759Z,101333.77
2018-11-25T05:26:38.387Z,101332.07
2018-11-25T05:29:06.196Z,101330.67
2018-11-25T05:31:33.873Z,101334.09
2018-11-25T05:34:01.550Z,101336.19
2018-11-25T05:36:29.247Z,101332.72
2018-11-25T05:38:56.886Z,101328.37
2018-11-25T05:41:24.578Z,101326.59
2018-11-25T05:43:52.242Z,101329.52
2018-11-25T05:46:19.899Z,101328.13
2018-11-25T05:48:47.571Z,101333.29
2018-11-25T05:51:15.273Z,101333.62
2018-11-25T05:53:42.922Z,101344.72
2018-11-25T05:56:10.604Z,101342.52
2018-11-25T05:58:38.277Z,101342.38
2018-11-25T06:01:06.052Z,101345.33
2018-11-25T06:03:33.690Z,101332.75
2018-11-25T06:06:01.356Z,101340.77
2018-11-25T06:08:29.042Z,101341.42
2018-11-25T06:10:56.707Z,101335.27
2018-11-25T06:13:24.355Z,101330.36
2018-11-25T06:15:52.020Z,101332.33
2018-11-25T06:18:19.721Z,101336.50
2018-11-25T06:20:47.408Z,101333.77
2018-11-25T06:23:15.078Z,101338.58
2018-11-25T06:25:42.738Z,101336.41
2018-11-25T06:28:10.424Z,101337.61
2018-11-25T06:30:38.065Z,101342.28
2018-11-25T06:33:05.801Z,101335.70
2018-11-25T06:35:33.509Z,101339.14
2018-11-25T06:38:01.159Z,101339.96
2018-11-25T06:40:29.700Z,101350.69
2018-11-25T06:42:57.384Z,101349.87
2018-11-25T06:45:26.363Z,101353.24
2018-11-25T06:47:54.905Z,101354.00
2018-11-25T06:50:22.587Z,101361.71
2018-11-25T06:52:50.275Z,101360.74
2018-11-25T06:55:17.990Z,101370.59
2018-11-25T06:57:45.696Z,101374.84
2018-11-25T07:00:19.564Z,101369.62
2018-11-25T07:02:47.260Z,101381.13
2018-11-25T07:05:14.987Z,101376.83
2018-11-25T07:07:42.658Z,101381.98
2018-11-25T07:10:11.458Z,101372.84
2018-11-25T07:12:39.105Z,101379.73
2018-11-25T07:15:09.078Z,101383.44
2018-11-25T07:17:36.807Z,101389.82
2018-11-25T07:20:04.614Z,101387.62
2018-11-25T07:22:32.282Z,101390.52
2018-11-25T07:24:59.949Z,101392.59
2018-11-25T07:27:27.612Z,101390.42
2018-11-25T07:29:55.289Z,101392.53
2018-11-25T07:32:22.952Z,101391.71
2018-11-25T07:34:50.596Z,101387.69
2018-11-25T07:37:18.254Z,101386.78
2018-11-25T07:39:45.902Z,101382.00
2018-11-25T07:42:13.588Z,101372.97
2018-11-25T07:44:41.241Z,101374.70
2018-11-25T07:47:08.934Z,101371.24
2018-11-25T07:49:36.602Z,101372.03
2018-11-25T07:52:04.465Z,101374.98
2018-11-25T07:54:32.147Z,101363.32
2018-11-25T07:56:59.797Z,101371.52
2018-11-25T07:59:27.470Z,101367.97
2018-11-25T08:01:55.130Z,101361.50
2018-11-25T08:04:22.795Z,101363.95
2018-11-25T08:06:50.449Z,101363.54
2018-11-25T08:09:18.084Z,101356.28
2018-11-25T08:11:45.735Z,101361.53
2018-11-25T08:14:13.355Z,101369.83
2018-11-25T08:16:41.012Z,101363.01
2018-11-25T08:19:08.669Z,101366.16
2018-11-25T08:21:36.337Z,101368.34
2018-11-25T08:24:03.995Z,101362.00
2018-11-25T08:26:31.645Z,101362.06
2018-11-25T08:28:59.334Z,101365.05
2018-11-25T08:31:27.025Z,101358.69
2018-11-25T08:33:54.686Z,101360.92
2018-11-25T08:36:22.376Z,101369.66
2018-11-25T08:38:50.073Z,101366.27
2018-11-25T08:41:17.731Z,101367.15
2018-11-25T08:43:45.442Z,101372.11
2018-11-25T08:46:13.118Z,101367.02
2018-11-25T08:48:40.777Z,101367.89
2018-11-25T08:51:08.402Z,101372.26
2018-11-25T08:53:36.077Z,101372.35
2018-11-25T08:56:03.770Z,101369.86
2018-11-25T08:58:31.483Z,101364.77
2018-11-25T09:00:59.183Z,101374.20
2018-11-25T09:03:26.863Z,101372.06
2018-11-25T09:05:54.531Z,101372.12
2018-11-25T09:08:22.171Z,101367.43
2018-11-25T09:10:49.825Z,101369.16
2018-11-25T09:13:17.471Z,101373.18
2018-11-25T09:15:45.126Z,101366.81
2018-11-25T09:18:12.774Z,101369.45
2018-11-25T09:20:40.456Z,101374.62
2018-11-25T09:23:08.099Z,101370.51
2018-11-25T09:25:35.796Z,101368.84
2018-11-25T09:28:03.757Z,101370.59
2018-11-25T09:30:32.312Z,101366.75
2018-11-25T09:32:59.970Z,101360.91
2018-11-25T09:35:27.655Z,101374.66
2018-11-25T09:37:55.342Z,101364.08
2018-11-25T09:40:25.017Z,101359.14
2018-11-25T09:42:52.728Z,101358.42
2018-11-25T09:45:20.583Z,101353.92
2018-11-25T09:47:48.624Z,101358.84
2018-11-25T09:50:19.053Z,101350.02
2018-11-25T09:52:46.754Z,101345.32
2018-11-25T09:55:15.412Z,101351.77
2018-11-25T09:57:44.522Z,101343.70
2018-11-25T10:00:18.214Z,101339.43
2018-11-25T10:02:45.945Z,101335.30
2018-11-25T10:05:13.682Z,101347.84
2018-11-25T10:07:41.398Z,101344.54
2018-11-25T10:10:11.392Z,101348.60
2018-11-25T10:12:39.035Z,101344.36
2018-11-25T10:15:09.326Z,101344.02
2018-11-25T10:17:37.011Z,101341.08
2018-11-25T10:20:07.961Z,101337.67
2018-11-25T10:22:35.649Z,101341.16
2018-11-25T10:25:03.326Z,101335.59
2018-11-25T10:27:30.978Z,101326.47
2018-11-25T10:29:58.630Z,101324.72
2018-11-25T10:32:26.295Z,101324.79
2018-11-25T10:34:53.962Z,101321.86
2018-11-25T10:37:21.662Z,101313.77
2018-11-25T10:39:49.336Z,101318.71
2018-11-25T10:42:17.034Z,101313.55
2018-11-25T10:44:44.723Z,101315.31
2018-11-25T10:47:12.351Z,101312.73
2018-11-25T10:49:40.009Z,101311.91
2018-11-25T10:52:07.661Z,101311.05
2018-11-25T10:54:35.385Z,101308.11
2018-11-25T10:57:03.053Z,101304.69
2018-11-25T10:59:30.722Z,101308.23
2018-11-25T11:02:03.862Z,101306.59
2018-11-25T11:04:37.161Z,101304.00
2018-11-25T11:07:10.584Z,101297.13
2018-11-25T11:09:38.401Z,101293.25
2018-11-25T11:12:06.095Z,101291.14
2018-11-25T11:14:33.743Z,101287.60
2018-11-25T11:17:01.422Z,101283.73
2018-11-25T11:19:29.134Z,101279.03
2018-11-25T11:21:56.851Z,101283.38
2018-11-25T11:24:24.526Z,101285.73
2018-11-25T11:26:52.172Z,101277.98
2018-11-25T11:29:19.855Z,101285.74
2018-11-25T11:31:47.532Z,101284.03
2018-11-25T11:34:15.226Z,101281.45
2018-11-25T11:36:42.887Z,101280.57
2018-11-25T11:39:10.545Z,101282.73
2018-11-25T11:41:38.206Z,101279.69
2018-11-25T11:44:05.882Z,101285.67
2018-11-25T11:46:33.563Z,101290.78
2018-11-25T11:49:01.253Z,101288.15
2018-11-25T11:51:28.916Z,101282.98
2018-11-25T11:53:56.582Z,101280.78
2018-11-25T11:56:24.242Z,101290.67
2018-11-25T11:58:51.904Z,101286.79
2018-11-25T12:01:19.550Z,101282.55
2018-11-25T12:03:47.249Z,101286.85
2018-11-25T12:06:14.873Z,101281.20
2018-11-25T12:08:42.548Z,101285.43
2018-11-25T12:11:10.219Z,101282.89
2018-11-25T12:13:37.901Z,101286.36
2018-11-25T12:16:05.610Z,101285.02
2018-11-25T12:18:33.291Z,101282.83
2018-11-25T12:21:00.972Z,101284.48
2018-11-25T12:23:28.665Z,101281.41
2018-11-25T12:25:56.367Z,101280.06
2018-11-25T12:28:24.050Z,101279.59
2018-11-25T12:30:51.902Z,101279.99
2018-11-25T12:33:19.568Z,101273.41
2018-11-25T12:35:47.245Z,101272.86
2018-11-25T12:38:14.903Z,101270.67
2018-11-25T12:40:42.581Z,101271.92
2018-11-25T12:43:10.244Z,101271.84
2018-11-25T12:45:37.953Z,101273.26
2018-11-25T12:48:06.061Z,101262.04
2018-11-25T12:50:33.739Z,101272.80
2018-11-25T12:53:01.438Z,101263.70
2018-11-25T12:55:29.169Z,101261.97
2018-11-25T12:57:57.247Z,101259.06
2018-11-25T13:00:31.698Z,101258.59
2018-11-25T13:02:59.382Z,101256.94
2018-11-25T13:05:27.128Z,101251.37
2018-11-25T13:07:54.834Z,101245.83
2018-11-25T13:10:22.511Z,101244.97
2018-11-25T13:12:50.155Z,101235.56
2018-11-25T13:15:17.799Z,101232.97
2018-11-25T13:17:45.469Z,101225.69
2018-11-25T13:20:14.408Z,101226.57
2018-11-25T13:22:42.150Z,101223.11
2018-11-25T13:25:14.036Z,101227.45
2018-11-25T13:27:41.716Z,101218.81
2018-11-25T13:30:27.597Z,101220.06
2018-11-25T13:32:56.364Z,101226.36
2018-11-25T13:35:24.787Z,101225.24
2018-11-25T13:37:52.416Z,101225.18
2018-11-25T13:40:20.089Z,101216.89
2018-11-25T13:42:47.757Z,101206.06
2018-11-25T13:45:15.494Z,101206.83
2018-11-25T13:47:43.193Z,101208.41
2018-11-25T13:50:11.682Z,101210.05
2018-11-25T13:52:39.443Z,101208.69
2018-11-25T13:55:10.824Z,101207.75
2018-11-25T13:57:38.469Z,101205.98
2018-11-25T14:00:14.613Z,101199.42
2018-11-25T14:02:42.404Z,101198.05
2018-11-25T14:05:10.048Z,101194.93
2018-11-25T14:07:37.693Z,101194.86
2018-11-25T14:10:09.478Z,101191.80
2018-11-25T14:12:37.124Z,101194.74
2018-11-25T14:15:05.087Z,101197.73
2018-11-25T14:17:32.717Z,101193.32
2018-11-25T14:20:00.370Z,101191.66
2018-11-25T14:22:28.062Z,101187.79
2018-11-25T14:24:55.722Z,101182.50
2018-11-25T14:27:23.374Z,101176.80
2018-11-25T14:29:51.125Z,101174.56
2018-11-25T14:32:18.862Z,101181.37
2018-11-25T14:34:46.491Z,101173.55
2018-11-25T14:37:14.123Z,101176.92
2018-11-25T14:39:41.837Z,101175.16
2018-11-25T14:42:09.508Z,101180.64
2018-11-25T14:44:37.195Z,101168.02
2018-11-25T14:47:04.954Z,101163.95
2018-11-25T14:49:32.657Z,101161.23
2018-11-25T14:52:00.337Z,101158.48
2018-11-25T14:54:28.043Z,101157.95
2018-11-25T14:56:55.786Z,101159.11
2018-11-25T14:59:23.470Z,101157.59
2018-11-25T15:01:51.156Z,101154.88
2018-11-25T15:04:18.789Z,101153.45
2018-11-25T15:06:46.462Z,101145.16
2018-11-25T15:09:14.223Z,101148.53
2018-11-25T15:11:41.872Z,101148.80
2018-11-25T15:14:09.513Z,101142.20
2018-11-25T15:16:37.374Z,101144.23
2018-11-25T15:19:05.952Z,101149.31
2018-11-25T15:21:33.595Z,101137.55
2018-11-25T15:24:01.312Z,101145.57
2018-11-25T15:26:29.048Z,101142.48
2018-11-25T15:28:56.728Z,101140.66
2018-11-25T15:31:24.348Z,101137.12
2018-11-25T15:33:51.997Z,101137.12
2018-11-25T15:36:19.653Z,101137.05
2018-11-25T15:38:47.396Z,101128.33
2018-11-25T15:41:15.038Z,101129.56
2018-11-25T15:43:42.703Z,101122.23
2018-11-25T15:46:10.363Z,101123.89
2018-11-25T15:48:38.015Z,101120.62
2018-11-25T15:51:05.824Z,101122.56
2018-11-25T15:53:33.514Z,101129.74
2018-11-25T15:56:03.584Z,101115.37
2018-11-25T15:58:31.281Z,101123.05
2018-11-25T16:00:58.952Z,101123.02
2018-11-25T16:03:26.603Z,101132.63
2018-11-25T16:05:57.667Z,101128.21
2018-11-25T16:08:25.350Z,101126.40
2018-11-25T16:10:53.089Z,101125.75
2018-11-25T16:13:20.738Z,101126.86
2018-11-25T16:15:48.417Z,101124.64
2018-11-25T16:18:16.099Z,101122.85
2018-11-25T16:20:43.804Z,101123.98
2018-11-25T16:23:11.473Z,101119.16
2018-11-25T16:25:55.830Z,101121.96
2018-11-25T16:28:26.301Z,101115.34
2018-11-25T16:30:53.974Z,101116.04
2018-11-25T16:33:21.609Z,101119.31
2018-11-25T16:35:49.300Z,101113.91
2018-11-25T16:38:16.987Z,101113.73
2018-11-25T16:40:44.679Z,101117.42
2018-11-25T16:43:12.351Z,101111.72
2018-11-25T16:45:40.015Z,101103.37
2018-11-25T16:48:08.019Z,101106.73
2018-11-25T16:50:35.702Z,101096.75
2018-11-25T16:53:03.407Z,101100.51
2018-11-25T16:55:31.061Z,101098.31
2018-11-25T16:57:58.764Z,101093.01
2018-11-25T17:00:26.477Z,101094.10
2018-11-25T17:02:54.098Z,101083.96
2018-11-25T17:05:24.694Z,101085.05
2018-11-25T17:07:54.329Z,101083.97
2018-11-25T17:10:21.977Z,101076.53
2018-11-25T17:12:49.597Z,101078.44
2018-11-25T17:15:21.491Z,101070.86
2018-11-25T17:17:49.137Z,101074.07
2018-11-25T17:20:16.883Z,101073.42
2018-11-25T17:22:44.564Z,101075.79
2018-11-25T17:25:13.109Z,101066.19
2018-11-25T17:27:40.815Z,101069.87
2018-11-25T17:30:13.563Z,101058.72
2018-11-25T17:32:41.477Z,101058.68
2018-11-25T17:35:26.470Z,101057.70
2018-11-25T17:37:54.251Z,101054.48
2018-11-25T17:40:21.949Z,101047.74
2018-11-25T17:42:49.847Z,101052.27
2018-11-25T17:45:17.504Z,101047.46
2018-11-25T17:47:45.221Z,101045.33
2018-11-25T17:50:29.729Z,101047.76
2018-11-25T17:52:57.399Z,101047.91
2018-11-25T17:55:26.349Z,101044.29
2018-11-25T17:57:54.034Z,101040.30
2018-11-25T18:00:36.507Z,101039.59
2018-11-25T18:03:05.332Z,101040.30
2018-11-25T18:05:38.662Z,101043.45
2018-11-25T18:08:00.676Z,101043.81
2018-11-25T18:10:28.392Z,101039.45
2018-11-25T18:12:56.037Z,101035.05
2018-11-25T18:15:23.697Z,101029.00
2018-11-25T18:17:58.140Z,101035.67
2018-11-25T18:20:28.054Z,101028.67
2018-11-25T18:22:55.765Z,101027.31
2018-11-25T18:25:23.396Z,101022.88
2018-11-25T18:27:51.069Z,101021.00
2018-11-25T18:30:18.693Z,101018.72
2018-11-25T18:32:46.386Z,101024.25
2018-11-25T18:35:14.069Z,101015.64
2018-11-25T18:37:41.714Z,101016.70
2018-11-25T18:40:11.728Z,101027.43
2018-11-25T18:42:39.553Z,101019.27
2018-11-25T18:45:11.270Z,101019.27
2018-11-25T18:47:38.966Z,101016.22
2018-11-25T18:50:09.034Z,101012.78
2018-11-25T18:52:36.692Z,101013.42
2018-11-25T18:55:03.086Z,101011.39
2018-11-25T18:57:30.724Z,101007.36
2018-11-25T18:59:58.338Z,101009.81
2018-11-25T19:02:43.966Z,101008.05
2018-11-25T19:05:11.621Z,101004.02
2018-11-25T19:07:39.250Z,101003.05
2018-11-25T19:10:12.265Z,100993.89
2018-11-25T19:12:44.166Z,100990.33
2018-11-25T19:15:09.681Z,100988.69
2018-11-25T19:17:37.341Z,100981.84
2018-11-25T19:20:10.000Z,100983.11
2018-11-25T19:22:37.609Z,100986.00
2018-11-25T19:25:06.322Z,100976.64
2018-11-25T19:27:33.918Z,100973.31
2018-11-25T19:30:01.557Z,100975.19
2018-11-25T19:32:29.155Z,100970.80
2018-11-25T19:34:56.774Z,100967.36
2018-11-25T19:37:24.398Z,100967.12
2018-11-25T19:39:52.095Z,100971.53
2018-11-25T19:42:19.728Z,100958.89
2018-11-25T19:44:47.345Z,100962.20
2018-11-25T19:47:14.987Z,100962.08
2018-11-25T19:49:42.620Z,100959.60
2018-11-25T19:52:10.237Z,100949.88
2018-11-25T19:54:37.862Z,100861.89
2018-11-25T19:57:05.530Z,100960.69
2018-11-25T19:59:33.146Z,100960.56
2018-11-25T20:02:00.870Z,100955.20
2018-11-25T20:04:28.539Z,100952.08
2018-11-25T20:06:56.213Z,100949.13
2018-11-25T20:09:28.429Z,100948.68
2018-11-25T20:11:56.248Z,100952.72
2018-11-25T20:14:25.588Z,100954.43
2018-11-25T20:16:58.711Z,100949.67
2018-11-25T20:19:26.358Z,100954.78
2018-11-25T20:21:59.590Z,100954.86
2018-11-25T20:24:27.277Z,100953.20
2018-11-25T20:27:00.488Z,100953.08
2018-11-25T20:29:28.106Z,100923.60
2018-11-25T20:32:01.449Z,100956.09
2018-11-25T20:34:29.089Z,100956.56
2018-11-25T20:36:56.775Z,100950.72
2018-11-25T20:39:29.740Z,100951.47
2018-11-25T20:41:57.362Z,100952.06
2018-11-25T20:44:25.111Z,100952.73
2018-11-25T20:46:58.265Z,100951.80
2018-11-25T20:49:25.952Z,100949.11
2018-11-25T20:51:59.150Z,100953.97
2018-11-25T20:54:26.797Z,100949.38
2018-11-25T20:56:54.418Z,100939.16
2018-11-25T20:59:22.110Z,100939.64
2018-11-25T21:01:49.729Z,100933.97
2018-11-25T21:04:17.392Z,100932.64
2018-11-25T21:06:45.031Z,100936.08
2018-11-25T21:09:12.677Z,100926.78
2018-11-25T21:11:40.274Z,100929.86
2018-11-25T21:14:07.896Z,100929.59
2018-11-25T21:16:35.528Z,100924.61
2018-11-25T21:19:03.201Z,100922.27
2018-11-25T21:21:30.841Z,100930.19
2018-11-25T21:23:58.457Z,100923.19
2018-11-25T21:26:26.081Z,100925.30
2018-11-25T21:28:53.701Z,100920.42
2018-11-25T21:31:21.356Z,100922.02
2018-11-25T21:33:49.045Z,100907.67
2018-11-25T21:36:16.630Z,100907.72
2018-11-25T21:38:44.265Z,100906.03
2018-11-25T21:41:11.905Z,100898.48
2018-11-25T21:43:39.545Z,100902.48
2018-11-25T21:46:07.194Z,100895.92
2018-11-25T21:48:34.842Z,100896.59
2018-11-25T21:51:02.549Z,100896.83
2018-11-25T21:53:30.149Z,100889.70
2018-11-25T21:55:57.765Z,100886.55
2018-11-25T21:58:28.670Z,100881.91
2018-11-25T22:00:53.053Z,100882.02
2018-11-25T22:03:20.672Z,100875.14
2018-11-25T22:05:48.299Z,100878.98
2018-11-25T22:08:15.905Z,100879.67
2018-11-25T22:10:43.513Z,100877.19
2018-11-25T22:13:11.181Z,100872.69
2018-11-25T22:15:38.796Z,100871.92
2018-11-25T22:18:06.425Z,100866.20
2018-11-25T22:20:34.034Z,100859.72
2018-11-25T22:23:01.676Z,100852.34
2018-11-25T22:25:29.304Z,100848.88
2018-11-25T22:27:57.032Z,100853.88
2018-11-25T22:30:24.686Z,100859.52
2018-11-25T22:32:52.322Z,100857.80
2018-11-25T22:35:21.777Z,100864.05
2018-11-25T22:37:49.452Z,100862.83
2018-11-25T22:40:17.914Z,100853.91
2018-11-25T22:42:46.515Z,100855.75
2018-11-25T22:45:15.173Z,100854.60
2018-11-25T22:47:42.792Z,100844.84
2018-11-25T22:50:18.188Z,100852.45
2018-11-25T22:52:45.890Z,100846.47
2018-11-25T22:55:16.614Z,100846.77
2018-11-25T22:57:44.275Z,100841.53
2018-11-25T23:00:16.838Z,100838.67
2018-11-25T23:02:44.578Z,100839.49
2018-11-25T23:05:23.426Z,100832.66
2018-11-25T23:07:51.037Z,100821.59
2018-11-25T23:10:18.694Z,100821.83
2018-11-25T23:12:46.358Z,100815.98
2018-11-25T23:15:14.092Z,100812.75
2018-11-25T23:17:41.726Z,100816.20
2018-11-25T23:20:09.384Z,100809.94
2018-11-25T23:22:37.021Z,100801.76
2018-11-25T23:25:04.878Z,100797.09
2018-11-25T23:27:32.508Z,100793.17
2018-11-25T23:30:00.167Z,100795.50
2018-11-25T23:32:27.871Z,100790.61
2018-11-25T23:34:55.579Z,100785.44
2018-11-25T23:37:23.214Z,100783.75
2018-11-25T23:39:50.826Z,100781.09
2018-11-25T23:42:18.481Z,100773.73
2018-11-25T23:44:46.090Z,100777.50
2018-11-25T23:47:13.722Z,100780.08
2018-11-25T23:49:41.339Z,100778.70
2018-11-25T23:52:08.954Z,100774.85
2018-11-25T23:54:36.581Z,100774.03
2018-11-25T23:57:04.274Z,100769.23
2018-11-25T23:59:31.913Z,100767.88
